Time;durP1;ratioP1;P1;durP2;ratioP2;P2;SDS_P1;SDS_P2;PMS_P1;PMS_P2;Temp;Humidity;BMP_temperature;BMP_pressure;BME280_temperature;BME280_humidity;BME280_pressure;Samples;Min_cycle;Max_cycle;Signal;HPM_P1;HPM_P2
2022/02/09 00:01:15;;;;;;;3.97;1.92;;;;;;;16.76;48.72;102552.22;5034471;28;20029;-62
2022/02/09 00:03:49;;;;;;;4.63;1.30;;;;;;;16.75;47.99;102540.53;5034319;28;20033;-61
2022/02/09 00:06:26;;;;;;;2.17;1.70;;;;;;;16.73;48.33;102547.91;5032465;28;20040;-62
2022/02/09 00:08:51;;;;;;;2.40;1.52;;;;;;;16.71;48.92;102552.59;5033942;28;20470;-62
2022/02/09 00:11:26;;;;;;;4.28;1.40;;;;;;;16.72;48.75;102548.06;5033818;28;20025;-61
2022/02/09 00:13:57;;;;;;;1.40;1.30;;;;;;;16.72;48.76;102540.78;5032756;28;20029;-62
2022/02/09 00:19:41;;;;;;;1.60;1.30;;;;;;;16.70;49.05;102547.31;5032674;28;20033;-62
2022/02/09 00:21:52;;;;;;;1.70;1.33;;;;;;;16.68;48.72;102544.75;5025642;28;20073;-62
2022/02/09 00:24:50;;;;;;;1.35;1.25;;;;;;;16.70;48.53;102542.75;5034058;28;20057;-62
2022/02/09 00:40:48;;;;;;;3.90;2.60;;;;;;;16.65;49.56;102528.75;5037393;28;20033;-62
2022/02/09 00:43:35;;;;;;;5.65;3.30;;;;;;;16.65;49.09;102526.03;5037033;28;20026;-62
2022/02/09 00:58:54;;;;;;;5.38;3.78;;;;;;;16.66;48.21;102525.06;5036953;28;20479;-62
2022/02/09 01:37:57;;;;;;;6.40;4.30;;;;;;;16.57;49.21;102525.81;5036046;28;20152;-62
2022/02/09 01:55:24;;;;;;;4.82;3.30;;;;;;;16.64;48.68;102520.75;5046881;28;20530;-62
2022/02/09 01:56:44;;;;;;;4.95;3.28;;;;;;;16.63;49.23;102509.09;5055804;28;20048;-62
2022/02/09 01:59:09;;;;;;;5.68;3.78;;;;;;;16.67;48.58;102515.94;5038055;28;20025;-62
2022/02/09 02:01:35;;;;;;;4.70;3.78;;;;;;;16.64;49.44;102507.22;5037622;28;20163;-61
2022/02/09 02:04:01;;;;;;;8.10;3.28;;;;;;;16.69;48.68;102502.31;5054721;28;20104;-62
2022/02/09 02:06:26;;;;;;;5.72;2.85;;;;;;;16.68;48.93;102504.16;5037997;28;20458;-62
2022/02/09 02:08:53;;;;;;;4.20;2.97;;;;;;;16.65;48.84;102490.88;5055634;28;20020;-62
2022/02/09 02:11:26;;;;;;;4.50;3.17;;;;;;;16.65;50.09;102484.59;5055309;28;20108;-62
2022/02/09 02:14:06;;;;;;;3.88;2.42;;;;;;;16.69;49.47;102486.06;5038625;28;20071;-62
2022/02/09 02:19:08;;;;;;;4.25;2.90;;;;;;;16.67;48.97;102497.00;5038428;28;20112;-62
2022/02/09 02:40:26;;;;;;;5.10;2.63;;;;;;;16.73;48.66;102476.69;5054882;28;20498;-62
2022/02/09 03:09:34;;;;;;;1.83;1.50;;;;;;;16.71;49.09;102463.31;5039629;28;20023;-61
2022/02/09 03:15:10;;;;;;;2.08;1.45;;;;;;;16.69;49.03;102468.00;5054451;28;20020;-62
2022/02/09 03:17:22;;;;;;;2.22;1.40;;;;;;;16.69;49.05;102462.59;5050782;28;20043;-62
2022/02/09 03:20:16;;;;;;;1.85;1.15;;;;;;;16.70;48.41;102455.28;5054222;28;20078;-62
2022/02/09 03:22:52;;;;;;;2.88;1.10;;;;;;;16.72;49.22;102453.34;5053261;28;20033;-61
2022/02/09 03:25:46;;;;;;;4.90;1.55;;;;;;;16.70;48.35;102450.75;5053968;28;20035;-62
2022/02/09 03:57:44;;;;;;;3.55;2.65;;;;;;;16.71;47.98;102420.00;5035796;28;20025;-64
2022/02/09 04:00:11;;;;;;;3.78;1.80;;;;;;;16.69;48.61;102416.59;5053533;28;20029;-64
2022/02/09 04:02:36;;;;;;;5.07;2.95;;;;;;;16.67;48.36;102413.13;5053510;28;20108;-64
2022/02/09 04:05:02;;;;;;;5.10;2.17;;;;;;;16.70;47.58;102422.81;5053484;28;20491;-64
2022/02/09 04:07:28;;;;;;;6.53;2.22;;;;;;;16.68;48.28;102420.25;5053783;28;20017;-64
2022/02/09 04:09:57;;;;;;;4.55;2.35;;;;;;;16.69;48.61;102421.13;5057319;28;20024;-61
2022/02/09 04:18:01;;;;;;;5.07;2.30;;;;;;;16.69;48.81;102426.53;5057647;28;20119;-61
2022/02/09 04:37:02;;;;;;;3.88;2.65;;;;;;;16.74;47.57;102408.06;5057154;28;20032;-62
2022/02/09 04:39:43;;;;;;;6.82;2.53;;;;;;;16.72;48.21;102402.75;5055634;28;20025;-61
2022/02/09 04:45:30;;;;;;;6.28;2.70;;;;;;;16.75;47.22;102413.31;5057072;28;20487;-62
2022/02/09 04:48:03;;;;;;;5.25;3.08;;;;;;;16.75;48.58;102417.91;5056933;28;20100;-61
2022/02/09 04:50:51;;;;;;;6.13;3.40;;;;;;;16.73;47.55;102409.91;5056469;28;20102;-61
2022/02/09 04:54:09;;;;;;;5.70;3.25;;;;;;;16.70;48.23;102412.88;5042387;28;20079;-62
2022/02/09 04:56:10;;;;;;;4.97;3.10;;;;;;;16.67;47.70;102406.84;5041764;28;20025;-62
2022/02/09 04:58:50;;;;;;;5.03;2.97;;;;;;;16.67;47.29;102394.19;5056766;28;20011;-62
2022/02/09 05:01:44;;;;;;;6.97;3.40;;;;;;;16.68;48.97;102404.03;5056708;28;20080;-62
2022/02/09 05:28:18;;;;;;;5.95;3.00;;;;;;;16.60;48.33;102398.41;4994868;28;20034;-62
2022/02/09 05:30:48;;;;;;;5.38;2.95;;;;;;;16.60;48.17;102390.28;5045776;28;20506;-62
2022/02/09 05:33:15;;;;;;;8.45;3.95;;;;;;;16.61;48.88;102386.56;5056090;28;20490;-62
2022/02/09 05:35:43;;;;;;;5.63;2.85;;;;;;;16.60;48.06;102384.88;5056197;28;20058;-62
2022/02/09 05:38:11;;;;;;;6.10;3.53;;;;;;;16.61;49.12;102381.16;5055742;28;20116;-61
2022/02/09 05:40:36;;;;;;;4.60;3.42;;;;;;;16.55;48.87;102373.59;5055826;28;20024;-61
2022/02/09 05:43:01;;;;;;;6.30;2.88;;;;;;;16.60;48.39;102390.28;5056003;28;20028;-62
2022/02/09 05:56:08;;;;;;;8.25;3.55;;;;;;;16.60;47.95;102392.13;5055632;28;20029;-61
2022/02/09 05:58:37;;;;;;;6.80;3.45;;;;;;;16.58;47.56;102392.25;5038338;28;20380;-62
2022/02/09 06:01:04;;;;;;;6.25;3.35;;;;;;;16.51;47.87;102380.22;5055221;28;20399;-62
2022/02/09 06:03:30;;;;;;;8.38;3.17;;;;;;;16.53;49.04;102383.66;5055157;28;20028;-62
2022/02/09 06:05:55;;;;;;;5.03;2.88;;;;;;;16.54;47.50;102390.81;5055174;28;20021;-61
2022/02/09 06:08:23;;;;;;;5.18;3.03;;;;;;;16.56;48.40;102394.22;5055232;28;20032;-62
2022/02/09 06:11:22;;;;;;;5.93;3.53;;;;;;;16.54;47.79;102385.41;5055469;28;20032;-62
2022/02/09 06:14:51;;;;;;;4.45;2.95;;;;;;;16.55;48.49;102387.13;5054958;28;20021;-62
2022/02/09 06:21:46;;;;;;;4.57;2.90;;;;;;;16.52;48.34;102387.34;5054852;28;20028;-62
2022/02/09 06:24:11;;;;;;;7.50;3.55;;;;;;;16.57;48.45;102401.38;5054929;28;20021;-62
2022/02/09 06:26:37;;;;;;;9.15;3.35;;;;;;;16.57;48.79;102404.06;5037012;28;20056;-62
2022/02/09 06:29:02;;;;;;;9.68;3.28;;;;;;;16.58;48.34;102405.78;5054818;28;20025;-61
2022/02/09 06:31:27;;;;;;;5.88;3.10;;;;;;;16.58;47.32;102397.66;5036806;28;20035;-62
2022/02/09 06:33:53;;;;;;;5.70;3.28;;;;;;;16.60;47.78;102411.94;5054822;28;20056;-62
2022/02/09 06:36:23;;;;;;;7.68;3.42;;;;;;;16.60;48.36;102409.22;5054628;28;20029;-62
2022/02/09 06:38:48;;;;;;;7.40;3.22;;;;;;;16.59;49.00;102393.97;5054935;28;20027;-62
2022/02/09 06:41:14;;;;;;;7.95;3.72;;;;;;;16.57;47.76;102404.06;5054793;28;20033;-62
2022/02/09 06:43:39;;;;;;;5.68;3.47;;;;;;;16.57;48.56;102406.78;5054566;28;20423;-61
2022/02/09 06:46:05;;;;;;;6.38;3.33;;;;;;;16.58;47.92;102403.06;5054624;28;20020;-62
2022/02/09 06:48:31;;;;;;;6.45;3.38;;;;;;;16.54;48.41;102390.81;5054781;28;20048;-62
2022/02/09 06:51:03;;;;;;;7.35;3.38;;;;;;;16.56;48.65;102402.34;5054012;28;20052;-61
2022/02/09 06:53:33;;;;;;;6.30;3.35;;;;;;;16.56;48.56;102396.94;5054834;28;20371;-62
2022/02/09 06:56:02;;;;;;;5.97;3.30;;;;;;;16.57;48.35;102405.91;5054376;28;20116;-61
2022/02/09 07:01:05;;;;;;;8.13;3.33;;;;;;;16.55;47.69;102392.53;5054284;28;20509;-61
2022/02/09 07:03:30;;;;;;;7.53;3.40;;;;;;;16.56;47.37;102405.06;5054281;28;20510;-61
2022/02/09 07:05:55;;;;;;;6.63;3.47;;;;;;;16.56;48.02;102405.06;5054069;28;20029;-62
2022/02/09 07:08:21;;;;;;;8.23;3.55;;;;;;;16.55;48.04;102407.91;5054258;28;20051;-62
2022/02/09 07:10:47;;;;;;;4.90;3.13;;;;;;;16.54;48.98;102404.34;5054427;28;20028;-61
2022/02/09 07:13:13;;;;;;;7.15;3.20;;;;;;;16.54;47.79;102407.03;5036618;28;20020;-62
2022/02/09 07:15:49;;;;;;;5.57;2.97;;;;;;;16.53;49.09;102410.72;5054341;28;20024;-62
2022/02/09 07:18:15;;;;;;;7.10;3.38;;;;;;;16.53;48.06;102402.59;5054279;28;20029;-62
2022/02/09 07:23:40;;;;;;;11.00;3.45;;;;;;;16.58;48.44;102413.88;5054157;28;20033;-62
2022/02/09 07:26:13;;;;;;;6.32;3.30;;;;;;;16.61;48.66;102413.63;5053727;28;20025;-64
2022/02/09 07:28:38;;;;;;;6.32;3.40;;;;;;;16.63;47.68;102417.09;5053548;28;20104;-64
2022/02/09 07:31:07;;;;;;;5.53;3.05;;;;;;;16.64;47.31;102413.38;5053712;28;20067;-64
2022/02/09 07:33:36;;;;;;;4.63;2.50;;;;;;;16.63;48.56;102414.38;5053763;28;20048;-64
2022/02/09 07:36:01;;;;;;;4.28;2.35;;;;;;;16.58;48.91;102403.06;5053375;28;20390;-64
2022/02/09 07:38:27;;;;;;;3.85;2.33;;;;;;;16.63;48.20;102400.84;5035626;28;20021;-64
2022/02/09 07:40:57;;;;;;;6.10;2.67;;;;;;;16.65;48.14;102409.69;5053479;28;20070;-64
2022/02/09 07:43:28;;;;;;;5.07;2.35;;;;;;;16.60;47.52;102395.72;5055726;28;20436;-64
2022/02/09 07:50:48;;;;;;;10.70;2.90;;;;;;;16.57;48.68;102412.19;5060013;28;20045;-64
2022/02/09 07:53:26;;;;;;;5.93;2.47;;;;;;;16.58;47.29;102411.19;5060390;28;20036;-64
2022/02/09 07:55:51;;;;;;;5.72;2.55;;;;;;;16.61;47.87;102400.09;5060014;28;20390;-64
2022/02/09 07:58:17;;;;;;;4.47;3.10;;;;;;;16.59;48.52;102395.81;5059902;28;20021;-64
2022/02/09 08:00:45;;;;;;;5.10;2.88;;;;;;;16.63;48.29;102406.28;5059796;28;20087;-64
2022/02/09 08:03:11;;;;;;;6.80;2.40;;;;;;;16.64;48.87;102409.81;5060001;28;20493;-64
2022/02/09 08:05:37;;;;;;;3.63;2.08;;;;;;;16.62;47.70;102412.66;5059924;28;20367;-64
2022/02/09 08:08:02;;;;;;;5.55;3.45;;;;;;;16.63;48.50;102405.41;5059851;28;20032;-64
2022/02/09 08:10:39;;;;;;;4.68;2.72;;;;;;;16.63;48.04;102406.28;5059749;28;20057;-64
2022/02/09 08:24:13;;;;;;;4.20;2.58;;;;;;;16.76;48.75;102409.66;5060409;28;20033;-64
2022/02/09 08:34:11;;;;;;;6.30;2.30;;;;;;;16.74;48.13;102410.75;5043700;28;20029;-64
2022/02/09 08:36:37;;;;;;;9.55;3.20;;;;;;;16.73;47.77;102407.19;5059570;28;20023;-64
2022/02/09 08:39:04;;;;;;;6.50;3.55;;;;;;;16.75;47.53;102413.31;5041590;28;20063;-64
2022/02/09 08:41:29;;;;;;;7.95;3.80;;;;;;;16.73;48.21;102407.19;5059615;28;20496;-64
2022/02/09 08:43:54;;;;;;;8.95;4.10;;;;;;;16.76;47.74;102406.94;5059483;28;20040;-64
2022/02/09 08:46:20;;;;;;;5.40;2.72;;;;;;;16.75;48.24;102402.50;5059548;28;20020;-64
2022/02/09 08:48:46;;;;;;;6.35;3.40;;;;;;;16.70;47.71;102402.03;5042018;28;20381;-64
2022/02/09 08:51:13;;;;;;;6.68;3.13;;;;;;;16.73;48.67;102401.78;5059064;28;20104;-64
2022/02/09 08:53:39;;;;;;;7.07;3.55;;;;;;;16.74;48.55;102403.50;5059418;28;20029;-64
2022/02/09 08:56:07;;;;;;;9.25;3.80;;;;;;;16.76;47.55;102395.25;5055622;28;20517;-64
2022/02/09 08:58:33;;;;;;;6.22;3.33;;;;;;;16.76;48.18;102396.13;5056116;28;20454;-64
2022/02/09 09:01:08;;;;;;;6.25;3.40;;;;;;;16.80;47.24;102397.59;5056430;28;20402;-64
2022/02/09 09:03:42;;;;;;;6.55;3.22;;;;;;;16.80;48.40;102392.16;5056428;28;20498;-64
2022/02/09 09:06:10;;;;;;;8.10;3.33;;;;;;;16.83;48.46;102391.03;5039565;28;20021;-64
2022/02/09 09:08:43;;;;;;;7.07;3.47;;;;;;;16.88;48.66;102388.78;5056169;28;20021;-64
2022/02/09 09:25:16;;;;;;;7.20;2.95;;;;;;;16.96;47.67;102390.84;5055657;28;20052;-64
2022/02/09 09:58:22;;;;;;;7.35;3.80;;;;;;;17.79;46.70;102378.00;5055281;28;20040;-64
2022/02/09 10:01:46;;;;;;;8.52;4.20;;;;;;;17.82;46.68;102367.75;5055389;28;20044;-64
2022/02/09 10:37:58;;;;;;;5.93;3.78;;;;;;;19.14;46.14;102386.13;4993360;28;20061;-64
2022/02/09 10:40:47;;;;;;;11.27;5.25;;;;;;;19.31;46.13;102383.63;4993223;28;20030;-64
2022/02/09 10:43:27;;;;;;;8.52;4.60;;;;;;;19.61;45.29;102375.25;4993184;28;20041;-64
2022/02/09 10:46:15;;;;;;;9.38;4.10;;;;;;;19.95;45.14;102370.91;4993244;28;20033;-64
2022/02/09 10:48:53;;;;;;;9.23;5.07;;;;;;;20.85;43.46;102368.09;4992866;28;20027;-64
2022/02/09 10:51:46;;;;;;;10.55;3.83;;;;;;;20.96;44.06;102369.69;4992608;28;20054;-64
2022/02/09 10:54:17;;;;;;;5.50;3.70;;;;;;;20.87;44.04;102366.06;4993329;28;20073;-64
2022/02/09 10:56:50;;;;;;;7.13;4.00;;;;;;;20.93;44.50;102359.97;4993082;28;20117;-64
2022/02/09 10:59:20;;;;;;;11.25;3.63;;;;;;;20.90;44.69;102361.16;4992662;28;20030;-64
2022/02/09 11:01:45;;;;;;;10.75;3.85;;;;;;;20.91;44.17;102356.53;5003036;28;20033;-64
2022/02/09 11:04:13;;;;;;;17.70;3.75;;;;;;;21.13;43.90;102356.06;5054204;28;20029;-64
2022/02/09 11:06:42;;;;;;;6.22;3.08;;;;;;;21.47;43.64;102356.94;5053726;28;20025;-64
2022/02/09 11:09:10;;;;;;;6.78;3.67;;;;;;;22.06;43.01;102355.13;5053603;28;20387;-64
2022/02/09 11:11:38;;;;;;;6.88;2.90;;;;;;;21.94;42.56;102356.50;5035792;28;20502;-64
2022/02/09 11:14:05;;;;;;;7.32;3.25;;;;;;;21.92;43.20;102347.59;5052311;28;20506;-64
2022/02/09 11:16:31;;;;;;;6.63;3.05;;;;;;;21.81;43.16;102361.50;5053439;28;20029;-64
2022/02/09 11:18:57;;;;;;;8.02;3.08;;;;;;;22.01;43.10;102352.06;5052858;28;20071;-64
2022/02/09 11:21:44;;;;;;;8.20;3.17;;;;;;;22.09;41.99;102343.88;5053675;28;20556;-64
2022/02/09 11:24:24;;;;;;;6.20;2.33;;;;;;;22.30;42.19;102341.56;5053313;28;20065;-64
2022/02/09 11:29:49;;;;;;;8.13;2.67;;;;;;;23.27;40.95;102341.50;5053155;28;20518;-64
2022/02/09 11:35:09;;;;;;;;;;;;;;;23.59;40.86;102335.13;5053857;28;20053;-63
2022/02/09 11:43:18;;;;;;;10.45;2.42;;;;;;;23.94;39.79;102334.59;5053047;28;20368;-63
2022/02/09 12:08:47;;;;;;;3.75;2.78;;;;;;;23.37;40.10;102313.94;5053268;28;20167;-64
2022/02/09 12:10:15;;;;;;;4.55;2.05;;;;;;;22.84;40.09;102306.38;5053010;28;20040;-64
2022/02/09 12:12:58;;;;;;;3.95;1.90;;;;;;;22.72;40.50;102314.13;5052760;28;20021;-64
2022/02/09 12:16:09;;;;;;;2.35;1.50;;;;;;;22.37;39.89;102309.81;5053021;28;20024;-64
2022/02/09 12:18:38;;;;;;;5.00;1.58;;;;;;;22.11;40.90;102303.63;5039118;28;20426;-64
2022/02/09 12:21:15;;;;;;;4.18;1.63;;;;;;;22.05;40.22;102307.06;5053197;28;20028;-64
2022/02/09 12:23:44;;;;;;;3.97;1.90;;;;;;;21.92;40.01;102301.19;5052836;28;20029;-64
2022/02/09 12:26:11;;;;;;;4.75;1.85;;;;;;;21.80;40.79;102294.34;5052673;28;20033;-63
2022/02/09 12:28:39;;;;;;;3.60;2.22;;;;;;;21.73;40.37;102282.38;5034781;28;20025;-64
2022/02/09 12:31:12;;;;;;;3.92;1.70;;;;;;;22.18;39.47;102293.75;5056231;28;20104;-64
2022/02/09 12:33:43;;;;;;;3.35;1.65;;;;;;;22.27;39.96;102287.28;5056752;28;20025;-64
2022/02/09 12:36:20;;;;;;;4.20;1.70;;;;;;;22.03;40.41;102295.41;5038928;28;20497;-64
2022/02/09 12:38:47;;;;;;;3.35;1.35;;;;;;;21.83;39.83;102288.56;5056382;28;20057;-63
2022/02/09 12:41:20;;;;;;;5.90;2.00;;;;;;;21.74;40.20;102300.44;5038763;28;20492;-63
2022/02/09 12:44:07;;;;;;;5.13;1.60;;;;;;;21.60;40.12;102295.63;5056422;28;20394;-63
2022/02/09 12:46:34;;;;;;;1.08;0.90;;;;;;;21.53;40.04;102291.84;5056480;28;20104;-63
2022/02/09 12:49:05;;;;;;;2.65;0.80;;;;;;;21.44;40.54;102291.81;5056611;28;20028;-63
2022/02/09 12:51:30;;;;;;;4.03;0.73;;;;;;;21.51;40.29;102288.44;5056181;28;20410;-63
2022/02/09 12:53:57;;;;;;;1.77;0.60;;;;;;;21.94;38.83;102291.00;5056197;28;20117;-63
2022/02/09 12:56:37;;;;;;;2.80;0.60;;;;;;;22.34;39.20;102280.09;5056431;28;20021;-64
2022/02/09 12:59:14;;;;;;;2.22;0.90;;;;;;;22.85;38.63;102280.78;5055954;28;20031;-64
2022/02/09 13:01:47;;;;;;;1.95;0.75;;;;;;;23.41;37.49;102277.03;5055906;28;20039;-64
2022/02/09 13:04:26;;;;;;;7.28;1.17;;;;;;;23.47;38.57;102271.72;5056118;28;20032;-64
2022/02/09 13:06:51;;;;;;;3.40;0.77;;;;;;;23.46;38.13;102269.16;5056075;28;20029;-64
2022/02/09 13:09:17;;;;;;;1.35;0.85;;;;;;;23.33;38.29;102274.31;5037832;28;20383;-64
2022/02/09 13:11:42;;;;;;;1.98;0.57;;;;;;;23.25;38.62;102269.75;5055723;28;20028;-64
2022/02/09 13:14:13;;;;;;;3.55;0.98;;;;;;;23.08;38.87;102255.28;5055713;28;20021;-64
2022/02/09 13:17:29;;;;;;;1.58;0.70;;;;;;;22.97;38.54;102252.06;5055924;28;20107;-64
2022/02/09 13:19:54;;;;;;;1.65;0.85;;;;;;;23.20;38.12;102248.38;5044875;28;20041;-64
2022/02/09 13:25:47;;;;;;;5.28;1.15;;;;;;;23.46;37.63;102250.84;5055509;28;20509;-63
2022/02/09 14:12:46;;;;;;;3.17;1.08;;;;;;;20.58;39.96;102230.16;5055104;28;20027;-64
2022/02/09 14:47:19;;;;;;;1.83;1.25;;;;;;;20.45;39.44;102218.00;5054518;28;20555;-64
2022/02/09 14:47:55;;;;;;;4.03;1.33;;;;;;;20.42;40.12;102207.44;5054190;28;20047;-63
2022/02/09 14:56:07;;;;;;;6.53;1.30;;;;;;;20.39;39.71;102218.63;5054466;28;20021;-64
2022/02/09 14:58:10;;;;;;;5.75;1.20;;;;;;;20.36;39.99;102216.22;5045662;28;20499;-64
2022/02/09 15:00:47;;;;;;;2.08;1.30;;;;;;;20.35;40.20;102217.25;5053965;28;20021;-63
2022/02/09 15:16:10;;;;;;;;;;;;;;;20.25;40.31;102217.34;5054777;28;20090;-64
2022/02/09 15:21:47;;;;;;;1.55;1.25;;;;;;;20.16;40.39;102221.81;5054495;28;20128;-64
2022/02/09 15:24:08;;;;;;;3.05;2.05;;;;;;;20.12;40.20;102204.13;5053980;28;20036;-64
2022/02/09 15:26:34;;;;;;;3.58;1.95;;;;;;;20.09;40.47;102207.16;5054238;28;20036;-64
2022/02/09 15:29:00;;;;;;;1.42;1.08;;;;;;;20.02;40.32;102203.34;5054150;28;20021;-64
2022/02/09 15:31:36;;;;;;;3.42;1.17;;;;;;;19.99;40.36;102197.38;5054195;28;20028;-63
2022/02/09 15:34:04;;;;;;;1.58;0.88;;;;;;;19.95;40.25;102195.97;5054056;28;20032;-64
2022/02/09 15:37:00;;;;;;;0.75;0.70;;;;;;;19.89;40.52;102188.44;5036220;28;20471;-64
2022/02/09 15:39:16;;;;;;;2.78;1.02;;;;;;;19.85;40.62;102187.88;5053827;28;20132;-64
2022/02/09 15:42:01;;;;;;;2.75;0.90;;;;;;;19.80;40.70;102186.63;5054441;28;20079;-64
2022/02/09 16:07:28;;;;;;;2.08;1.00;;;;;;;19.35;40.70;102190.22;5042231;28;20414;-64
2022/02/09 16:22:23;;;;;;;8.00;2.65;;;;;;;19.10;40.82;102170.06;5057230;28;20071;-64
2022/02/09 16:46:14;;;;;;;4.55;1.50;;;;;;;18.43;40.82;102158.63;5056520;28;20077;-64
2022/02/09 16:48:45;;;;;;;3.63;1.58;;;;;;;18.38;41.72;102164.50;5056705;28;20090;-63
2022/02/09 16:51:15;;;;;;;2.60;1.10;;;;;;;18.31;40.98;102167.97;5056502;28;20053;-64
2022/02/09 16:54:01;;;;;;;3.70;1.63;;;;;;;18.25;41.28;102163.97;5056592;28;20025;-62
2022/02/09 17:20:43;;;;;;;8.02;2.53;;;;;;;17.27;41.73;102170.50;5056475;28;20032;-64
2022/02/09 17:23:09;;;;;;;6.55;2.92;;;;;;;17.28;42.81;102185.78;5055841;28;20490;-64
2022/02/09 17:25:34;;;;;;;4.53;3.10;;;;;;;17.21;42.91;102174.63;5055767;28;20093;-63
2022/02/09 17:28:00;;;;;;;6.03;3.28;;;;;;;17.15;42.37;102182.44;5055781;28;20048;-64
2022/02/09 17:33:08;;;;;;;9.27;3.97;;;;;;;17.10;42.23;102187.44;5056050;28;20025;-63
2022/02/09 17:35:43;;;;;;;7.30;3.67;;;;;;;17.04;42.91;102179.84;5055549;28;20025;-64
2022/02/09 17:38:26;;;;;;;8.70;3.20;;;;;;;16.98;42.17;102178.53;5055657;28;20395;-63
2022/02/09 17:57:29;;;;;;;4.47;2.15;;;;;;;16.45;42.59;102182.41;5055190;28;20040;-63
2022/02/09 18:00:11;;;;;;;5.40;2.45;;;;;;;16.36;43.36;102178.66;5055315;28;20025;-63
2022/02/09 18:02:36;;;;;;;5.15;3.20;;;;;;;16.29;42.92;102169.38;5039965;28;20028;-63
2022/02/09 18:05:05;;;;;;;4.30;2.38;;;;;;;16.28;42.16;102170.34;5055180;28;20032;-63
2022/02/09 18:07:34;;;;;;;7.13;2.17;;;;;;;16.22;43.60;102173.59;5037958;28;20021;-63
2022/02/09 18:10:08;;;;;;;7.22;2.10;;;;;;;16.13;43.42;102167.16;5055025;28;20056;-64
2022/02/09 18:15:44;;;;;;;3.97;2.00;;;;;;;15.99;42.33;102163.91;5031757;28;20044;-64
2022/02/09 18:44:40;;;;;;;3.22;2.17;;;;;;;15.43;42.88;102158.72;5054798;28;20037;-63
2022/02/09 19:03:33;;;;;;;5.10;2.30;;;;;;;15.14;43.10;102149.47;5054057;28;20056;-63
2022/02/09 19:06:05;;;;;;;5.55;2.22;;;;;;;15.10;44.12;102142.63;5054278;28;20028;-63
2022/02/09 19:08:51;;;;;;;4.30;2.28;;;;;;;15.06;43.25;102146.56;5036801;28;20101;-63
2022/02/09 19:30:47;;;;;;;6.10;3.45;;;;;;;15.03;44.53;102134.16;5050221;28;20136;-63
2022/02/09 19:42:02;;;;;;;4.80;2.67;;;;;;;15.10;44.47;102123.72;5053620;28;20075;-63
2022/02/09 19:46:52;;;;;;;6.53;2.83;;;;;;;15.05;44.68;102109.75;5053514;28;20059;-63
2022/02/09 19:51:50;;;;;;;4.97;3.03;;;;;;;15.03;44.26;102111.72;5053238;28;20052;-63
2022/02/09 19:56:51;;;;;;;7.20;3.20;;;;;;;14.94;45.33;102109.75;5053848;28;20116;-63
2022/02/09 19:59:19;;;;;;;5.03;3.20;;;;;;;14.93;43.86;102111.63;5053325;28;20048;-63
2022/02/09 20:01:45;;;;;;;7.13;3.47;;;;;;;14.95;43.93;102114.19;5035791;28;20031;-63
2022/02/09 20:04:12;;;;;;;8.45;4.43;;;;;;;14.91;43.79;102113.56;5053262;28;20436;-63
2022/02/09 20:06:38;;;;;;;8.55;3.90;;;;;;;14.89;43.71;102120.09;5018874;28;20120;-63
2022/02/09 20:09:04;;;;;;;7.90;4.30;;;;;;;14.85;44.03;102115.94;5053528;28;20490;-63
2022/02/09 20:11:29;;;;;;;11.30;4.82;;;;;;;14.80;44.12;102110.91;5053030;28;20394;-63
2022/02/09 20:13:55;;;;;;;7.55;4.35;;;;;;;14.77;45.38;102110.31;5053155;28;20087;-63
2022/02/09 20:16:22;;;;;;;7.85;3.78;;;;;;;14.74;45.07;102115.94;5053207;28;20060;-63
2022/02/09 20:18:48;;;;;;;9.57;3.92;;;;;;;14.69;45.14;102097.44;5053219;28;20475;-63
2022/02/09 20:21:14;;;;;;;6.68;4.32;;;;;;;14.67;45.23;102103.94;5053650;28;20048;-63
2022/02/09 20:23:39;;;;;;;5.53;3.75;;;;;;;14.64;43.68;102104.19;5051759;28;20460;-63
2022/02/09 20:26:08;;;;;;;5.72;3.53;;;;;;;14.62;45.46;102106.16;5053439;28;20032;-63
2022/02/09 20:28:35;;;;;;;11.38;3.95;;;;;;;14.60;44.71;102100.03;5035301;28;20017;-63
2022/02/09 20:31:06;;;;;;;8.57;3.90;;;;;;;14.47;44.05;102078.56;5035643;28;20095;-63
2022/02/09 20:33:40;;;;;;;9.75;3.63;;;;;;;14.54;44.83;102093.28;5053102;28;20040;-63
2022/02/09 20:36:07;;;;;;;10.35;5.13;;;;;;;14.55;44.68;102089.59;5053018;28;20535;-63
2022/02/09 20:38:34;;;;;;;9.05;3.85;;;;;;;14.56;45.28;102091.31;5052869;28;20025;-63
2022/02/09 20:41:04;;;;;;;7.07;4.53;;;;;;;14.58;44.93;102087.50;5035345;28;20073;-63
2022/02/09 20:43:33;;;;;;;7.03;4.85;;;;;;;14.58;44.27;102087.50;5052988;28;20483;-63
2022/02/09 20:46:02;;;;;;;9.07;5.47;;;;;;;14.60;45.74;102090.06;5052846;28;20053;-63
2022/02/09 20:48:28;;;;;;;12.55;5.18;;;;;;;14.60;44.40;102089.25;5052759;28;20029;-63
2022/02/09 20:50:56;;;;;;;6.93;4.20;;;;;;;14.62;44.41;102100.75;5054388;28;20032;-63
2022/02/09 20:53:22;;;;;;;8.40;4.45;;;;;;;14.61;44.32;102099.03;5056804;28;20036;-63
2022/02/09 20:55:48;;;;;;;8.18;4.43;;;;;;;14.62;44.37;102100.75;5056731;28;20090;-63
2022/02/09 20:58:15;;;;;;;10.00;4.65;;;;;;;14.63;45.67;102102.47;5056630;28;20449;-63
2022/02/09 21:00:49;;;;;;;12.85;5.20;;;;;;;14.60;45.42;102087.38;5056447;28;20029;-63
2022/02/09 21:06:33;;;;;;;12.82;5.63;;;;;;;14.52;44.79;102074.53;5041282;28;20090;-63
2022/02/09 21:09:11;;;;;;;6.32;4.47;;;;;;;14.66;44.74;102091.41;5056454;28;20359;-63
2022/02/09 21:17:00;;;;;;;11.77;5.20;;;;;;;14.74;45.39;102089.81;5056095;28;20094;-63
2022/02/09 21:20:44;;;;;;;7.75;4.63;;;;;;;14.74;45.03;102084.41;5040995;28;20438;-63
2022/02/09 21:25:51;;;;;;;8.18;5.05;;;;;;;14.78;45.47;102069.72;5056034;28;20482;-63
2022/02/09 21:28:56;;;;;;;8.25;5.18;;;;;;;14.80;44.44;102077.66;5055134;28;20434;-63
2022/02/09 21:55:30;;;;;;;9.13;4.85;;;;;;;14.97;45.13;102063.66;5015933;28;20507;-63
2022/02/09 22:22:02;;;;;;;8.02;4.78;;;;;;;15.00;46.14;102039.09;5035276;28;20057;-63
2022/02/09 22:34:54;;;;;;;9.05;5.32;;;;;;;15.06;46.32;102025.09;5035246;28;20033;-63
2022/02/09 22:45:56;;;;;;;12.32;5.80;;;;;;;15.16;46.25;102015.25;5034353;28;20096;-63
2022/02/09 22:50:45;;;;;;;10.13;5.78;;;;;;;15.17;46.65;102016.97;5034800;28;20037;-63
2022/02/09 22:55:54;;;;;;;11.82;6.00;;;;;;;15.16;46.72;102004.44;5054182;28;20395;-64
2022/02/09 22:58:19;;;;;;;8.75;5.43;;;;;;;15.15;46.11;102003.63;5036382;28;20017;-63
2022/02/09 23:03:24;;;;;;;9.20;6.10;;;;;;;15.17;45.72;102006.16;5054428;28;20057;-63
2022/02/09 23:13:54;;;;;;;10.95;6.05;;;;;;;15.14;46.50;101976.72;5053678;28;20029;-63
2022/02/09 23:22:52;;;;;;;12.73;5.53;;;;;;;15.01;46.96;101954.47;5054194;28;20033;-63
2022/02/09 23:54:38;;;;;;;9.60;4.60;;;;;;;14.29;45.75;101927.22;5053349;28;20086;-63
